createdAt,value
2019-05-18T00:00:46.270Z,11.60
2019-05-18T00:02:50.271Z,11.60
2019-05-18T00:04:54.160Z,11.60
2019-05-18T00:06:58.203Z,11.60
2019-05-18T00:09:02.177Z,11.70
2019-05-18T00:11:06.095Z,11.60
2019-05-18T00:13:10.021Z,11.50
2019-05-18T00:15:14.134Z,11.50
2019-05-18T00:17:25.449Z,11.50
2019-05-18T00:19:23.595Z,11.50
2019-05-18T00:21:27.547Z,11.50
2019-05-18T00:23:31.453Z,11.40
2019-05-18T00:25:36.367Z,11.40
2019-05-18T00:27:40.407Z,11.30
2019-05-18T00:29:44.290Z,11.30
2019-05-18T00:31:48.193Z,11.30
2019-05-18T00:33:52.137Z,11.30
2019-05-18T00:35:56.033Z,11.30
2019-05-18T00:37:59.966Z,11.40
2019-05-18T00:40:05.158Z,11.40
2019-05-18T00:42:09.101Z,11.40
2019-05-18T00:44:13.025Z,11.40
2019-05-18T00:46:16.940Z,11.40
2019-05-18T00:48:20.886Z,11.40
2019-05-18T00:50:24.785Z,11.40
2019-05-18T00:52:28.684Z,11.40
2019-05-18T00:54:32.604Z,11.30
2019-05-18T00:56:36.506Z,11.40
2019-05-18T00:58:43.406Z,11.40
2019-05-18T01:00:47.316Z,11.50
2019-05-18T01:02:51.220Z,11.50
2019-05-18T01:04:55.127Z,11.40
2019-05-18T01:06:59.021Z,11.40
2019-05-18T01:09:02.927Z,11.40
2019-05-18T01:11:06.858Z,11.40
2019-05-18T01:13:10.746Z,11.50
2019-05-18T01:15:15.479Z,11.50
2019-05-18T01:17:19.408Z,11.50
2019-05-18T01:19:23.737Z,11.50
2019-05-18T01:21:27.750Z,11.50
2019-05-18T01:23:31.633Z,11.50
2019-05-18T01:25:35.581Z,11.50
2019-05-18T01:27:39.504Z,11.40
2019-05-18T01:29:43.423Z,11.50
2019-05-18T01:31:47.349Z,11.40
2019-05-18T01:33:51.244Z,11.50
2019-05-18T01:35:55.292Z,11.40
2019-05-18T01:37:59.193Z,11.50
2019-05-18T01:40:03.089Z,11.50
2019-05-18T01:42:07.024Z,11.40
2019-05-18T01:44:11.018Z,11.40
2019-05-18T01:46:23.213Z,11.40
2019-05-18T01:48:27.547Z,11.40
2019-05-18T01:50:31.452Z,11.40
2019-05-18T01:52:35.395Z,11.40
2019-05-18T01:54:39.274Z,11.40
2019-05-18T01:56:43.224Z,11.40
2019-05-18T01:58:47.130Z,11.40
2019-05-18T02:00:51.053Z,11.50
2019-05-18T02:02:54.981Z,11.50
2019-05-18T02:04:58.929Z,11.50
2019-05-18T02:07:02.853Z,11.40
2019-05-18T02:09:09.075Z,11.40
2019-05-18T02:11:12.997Z,11.50
2019-05-18T02:13:16.938Z,11.40
2019-05-18T02:15:20.915Z,11.40
2019-05-18T02:17:24.818Z,11.50
2019-05-18T02:19:28.854Z,11.50
2019-05-18T02:21:32.757Z,11.50
2019-05-18T02:23:36.629Z,11.60
2019-05-18T02:25:40.554Z,11.50
2019-05-18T02:27:44.461Z,11.50
2019-05-18T02:29:48.390Z,11.50
2019-05-18T02:31:52.312Z,11.50
2019-05-18T02:33:56.213Z,11.50
2019-05-18T02:36:00.227Z,11.50
2019-05-18T02:38:16.672Z,11.50
2019-05-18T02:40:21.074Z,11.60
2019-05-18T02:42:25.300Z,11.60
2019-05-18T02:44:29.709Z,11.60
2019-05-18T02:46:33.854Z,11.60
2019-05-18T02:48:48.632Z,11.60
2019-05-18T02:50:43.581Z,11.60
2019-05-18T02:52:47.616Z,11.70
2019-05-18T02:54:51.738Z,11.60
2019-05-18T02:56:55.815Z,11.60
2019-05-18T02:59:00.256Z,11.60
2019-05-18T03:01:04.229Z,11.60
2019-05-18T03:03:08.146Z,11.60
2019-05-18T03:05:12.269Z,11.60
2019-05-18T03:07:16.165Z,11.60
2019-05-18T03:09:20.088Z,11.60
2019-05-18T03:11:24.121Z,11.70
2019-05-18T03:13:28.024Z,11.70
2019-05-18T03:15:31.963Z,11.60
2019-05-18T03:17:35.861Z,11.70
2019-05-18T03:19:39.886Z,11.70
2019-05-18T03:21:43.765Z,11.70
2019-05-18T03:23:47.697Z,11.70
2019-05-18T03:25:51.627Z,11.50
2019-05-18T03:27:55.814Z,11.40
2019-05-18T03:29:59.704Z,11.50
2019-05-18T03:32:03.631Z,11.40
2019-05-18T03:34:07.629Z,11.40
2019-05-18T03:36:11.566Z,11.30
2019-05-18T03:38:15.437Z,11.20
2019-05-18T03:40:19.431Z,11.20
2019-05-18T03:42:23.369Z,11.20
2019-05-18T03:44:27.274Z,11.20
2019-05-18T03:46:31.223Z,11.10
2019-05-18T03:48:35.166Z,11.10
2019-05-18T03:50:39.047Z,11.10
2019-05-18T03:52:42.996Z,11.10
2019-05-18T03:54:46.890Z,11.10
2019-05-18T03:56:50.824Z,11.00
2019-05-18T03:58:54.737Z,11.00
2019-05-18T04:00:58.647Z,11.00
2019-05-18T04:03:02.596Z,11.10
2019-05-18T04:05:07.425Z,11.00
2019-05-18T04:07:11.309Z,11.00
2019-05-18T04:09:15.237Z,11.00
2019-05-18T04:11:19.134Z,11.00
2019-05-18T04:13:23.006Z,11.00
2019-05-18T04:15:26.953Z,11.00
2019-05-18T04:17:30.872Z,11.00
2019-05-18T04:19:45.625Z,11.00
2019-05-18T04:21:40.359Z,11.00
2019-05-18T04:23:44.288Z,11.00
2019-05-18T04:25:48.233Z,11.10
2019-05-18T04:27:52.120Z,11.00
2019-05-18T04:29:56.079Z,11.00
2019-05-18T04:32:00.001Z,11.00
2019-05-18T04:34:03.953Z,11.00
2019-05-18T04:36:08.072Z,11.00
2019-05-18T04:38:11.962Z,11.10
2019-05-18T04:40:16.086Z,11.20
2019-05-18T04:42:20.001Z,11.20
2019-05-18T04:44:23.913Z,11.20
2019-05-18T04:46:27.850Z,11.20
2019-05-18T04:48:31.748Z,11.20
2019-05-18T04:50:35.689Z,11.20
2019-05-18T04:52:39.724Z,11.20
2019-05-18T04:54:43.637Z,11.20
2019-05-18T04:56:47.562Z,11.30
2019-05-18T04:58:51.429Z,11.30
2019-05-18T05:00:55.392Z,11.30
2019-05-18T05:02:59.296Z,11.40
2019-05-18T05:05:03.223Z,11.40
2019-05-18T05:07:07.148Z,11.40
2019-05-18T05:09:11.157Z,11.50
2019-05-18T05:11:15.108Z,11.50
2019-05-18T05:13:19.287Z,11.50
2019-05-18T05:15:23.546Z,11.50
2019-05-18T05:17:27.863Z,11.60
2019-05-18T05:19:32.190Z,11.60
2019-05-18T05:21:36.318Z,11.60
2019-05-18T05:23:40.547Z,11.70
2019-05-18T05:25:44.641Z,11.70
2019-05-18T05:27:48.585Z,11.80
2019-05-18T05:29:52.506Z,11.80
2019-05-18T05:31:56.508Z,11.90
2019-05-18T05:34:00.407Z,11.90
2019-05-18T05:36:04.369Z,11.90
2019-05-18T05:38:08.282Z,12.00
2019-05-18T05:40:12.656Z,12.00
2019-05-18T05:42:16.534Z,12.10
2019-05-18T05:44:20.433Z,12.10
2019-05-18T05:46:24.361Z,12.10
2019-05-18T05:48:28.312Z,12.10
2019-05-18T05:50:36.060Z,12.20
2019-05-18T05:52:37.867Z,12.20
2019-05-18T05:54:41.881Z,12.30
2019-05-18T05:56:45.805Z,12.30
2019-05-18T05:58:49.712Z,12.30
2019-05-18T06:00:53.682Z,12.30
2019-05-18T06:02:57.605Z,12.40
2019-05-18T06:05:01.508Z,12.50
2019-05-18T06:07:05.444Z,12.50
2019-05-18T06:09:09.346Z,12.50
2019-05-18T06:11:13.254Z,12.60
2019-05-18T06:13:17.188Z,12.60
2019-05-18T06:15:21.093Z,12.70
2019-05-18T06:17:25.025Z,12.70
2019-05-18T06:19:28.964Z,12.80
2019-05-18T06:21:32.868Z,12.80
2019-05-18T06:23:36.803Z,12.80
2019-05-18T06:25:40.688Z,12.90
2019-05-18T06:27:44.634Z,12.90
2019-05-18T06:29:48.551Z,13.00
2019-05-18T06:31:52.467Z,13.00
2019-05-18T06:33:56.359Z,13.10
2019-05-18T06:36:00.317Z,13.10
2019-05-18T06:38:04.293Z,13.10
2019-05-18T06:40:08.435Z,13.20
2019-05-18T06:42:12.415Z,13.30
2019-05-18T06:44:16.332Z,13.30
2019-05-18T06:46:20.221Z,13.30
2019-05-18T06:48:24.121Z,13.30
2019-05-18T06:50:30.205Z,13.30
2019-05-18T06:52:34.153Z,13.30
2019-05-18T06:54:38.052Z,13.30
2019-05-18T06:56:42.698Z,13.40
2019-05-18T06:58:46.982Z,13.50
2019-05-18T07:00:50.888Z,13.50
2019-05-18T07:02:55.223Z,13.50
2019-05-18T07:04:59.121Z,13.50
2019-05-18T07:07:03.021Z,13.50
2019-05-18T07:09:13.690Z,13.60
2019-05-18T07:11:13.011Z,13.70
2019-05-18T07:13:16.936Z,13.70
2019-05-18T07:15:21.451Z,13.70
2019-05-18T07:17:25.333Z,13.80
2019-05-18T07:19:29.365Z,13.80
2019-05-18T07:21:33.260Z,13.80
2019-05-18T07:23:37.183Z,13.90
2019-05-18T07:25:41.108Z,14.00
2019-05-18T07:27:45.013Z,14.00
2019-05-18T07:29:48.920Z,14.00
2019-05-18T07:31:52.843Z,13.90
2019-05-18T07:33:56.751Z,14.00
2019-05-18T07:36:00.686Z,14.00
2019-05-18T07:38:04.629Z,14.10
2019-05-18T07:40:08.921Z,14.10
2019-05-18T07:42:12.994Z,14.20
2019-05-18T07:44:16.869Z,14.20
2019-05-18T07:46:20.764Z,14.20
2019-05-18T07:48:24.701Z,14.20
2019-05-18T07:50:28.597Z,14.30
2019-05-18T07:52:32.699Z,14.30
2019-05-18T07:54:36.670Z,14.30
2019-05-18T07:56:41.470Z,14.50
2019-05-18T07:58:45.404Z,14.50
2019-05-18T08:00:49.305Z,14.50
2019-05-18T08:02:53.236Z,14.60
2019-05-18T08:04:57.185Z,14.60
2019-05-18T08:07:02.459Z,14.70
2019-05-18T08:09:08.490Z,14.80
2019-05-18T08:11:12.779Z,14.80
2019-05-18T08:13:16.688Z,14.90
2019-05-18T08:15:21.110Z,14.90
2019-05-18T08:17:25.010Z,15.00
2019-05-18T08:19:29.516Z,14.90
2019-05-18T08:21:33.672Z,15.00
2019-05-18T08:23:37.883Z,14.90
2019-05-18T08:25:42.124Z,15.00
2019-05-18T08:27:46.541Z,15.00
2019-05-18T08:29:51.227Z,15.10
2019-05-18T08:31:55.200Z,15.20
2019-05-18T08:33:59.075Z,15.20
2019-05-18T08:36:03.899Z,15.30
2019-05-18T08:38:07.822Z,15.30
2019-05-18T08:40:12.827Z,15.30
2019-05-18T08:42:16.772Z,15.50
2019-05-18T08:44:20.673Z,15.60
2019-05-18T08:46:24.627Z,15.50
2019-05-18T08:48:28.542Z,15.50
2019-05-18T08:50:32.431Z,15.40
2019-05-18T08:52:36.345Z,15.40
2019-05-18T08:54:40.299Z,15.70
2019-05-18T08:56:44.202Z,15.80
2019-05-18T08:58:48.146Z,15.80
2019-05-18T09:00:52.052Z,15.80
2019-05-18T09:02:56.117Z,15.80
2019-05-18T09:05:00.026Z,15.80
2019-05-18T09:07:06.809Z,16.00
2019-05-18T09:09:10.743Z,16.00
2019-05-18T09:11:14.642Z,16.00
2019-05-18T09:13:18.714Z,15.90
2019-05-18T09:15:22.880Z,15.90
2019-05-18T09:17:26.791Z,16.10
2019-05-18T09:19:30.693Z,16.00
2019-05-18T09:21:34.680Z,16.20
2019-05-18T09:23:38.557Z,16.40
2019-05-18T09:25:42.506Z,16.50
2019-05-18T09:27:46.498Z,16.40
2019-05-18T09:29:50.388Z,16.40
2019-05-18T09:31:54.333Z,16.50
2019-05-18T09:33:58.529Z,16.40
2019-05-18T09:36:02.499Z,16.50
2019-05-18T09:38:08.405Z,16.50
2019-05-18T09:40:14.124Z,16.50
2019-05-18T09:42:18.011Z,16.60
2019-05-18T09:44:22.002Z,16.70
2019-05-18T09:46:25.953Z,16.80
2019-05-18T09:48:29.915Z,16.90
2019-05-18T09:50:33.784Z,16.90
2019-05-18T09:52:46.121Z,16.80
2019-05-18T09:54:43.419Z,16.90
2019-05-18T09:56:47.304Z,17.10
2019-05-18T09:58:51.250Z,17.30
2019-05-18T10:00:55.174Z,17.20
2019-05-18T10:02:59.080Z,17.20
2019-05-18T10:05:03.045Z,17.10
2019-05-18T10:07:09.368Z,17.20
2019-05-18T10:09:13.274Z,17.40
2019-05-18T10:11:17.234Z,17.50
2019-05-18T10:13:21.116Z,17.40
2019-05-18T10:15:25.049Z,17.30
2019-05-18T10:17:32.845Z,17.50
2019-05-18T10:19:37.753Z,17.50
2019-05-18T10:21:41.781Z,17.50
2019-05-18T10:23:45.986Z,17.40
2019-05-18T10:25:49.977Z,17.60
2019-05-18T10:27:54.338Z,17.50
2019-05-18T10:29:58.257Z,17.50
2019-05-18T10:32:02.368Z,17.60
2019-05-18T10:34:06.293Z,17.50
2019-05-18T10:36:11.790Z,17.50
2019-05-18T10:38:16.593Z,17.60
2019-05-18T10:40:20.828Z,17.70
2019-05-18T10:42:24.864Z,17.90
2019-05-18T10:44:29.100Z,17.90
2019-05-18T10:46:33.002Z,17.80
2019-05-18T10:48:37.524Z,18.10
2019-05-18T10:50:42.817Z,18.20
2019-05-18T10:52:46.708Z,18.20
2019-05-18T10:54:50.614Z,18.20
2019-05-18T10:56:54.633Z,18.50
2019-05-18T10:59:05.407Z,18.50
2019-05-18T11:01:10.040Z,18.50
2019-05-18T11:03:14.460Z,18.40
2019-05-18T11:05:18.884Z,18.30
2019-05-18T11:07:23.409Z,18.60
2019-05-18T11:09:28.429Z,18.60
2019-05-18T11:11:32.685Z,18.60
2019-05-18T11:13:36.964Z,18.60
2019-05-18T11:15:41.409Z,18.50
2019-05-18T11:17:45.792Z,18.50
2019-05-18T11:19:49.899Z,18.50
2019-05-18T11:21:54.088Z,18.50
2019-05-18T11:23:58.361Z,18.50
2019-05-18T11:26:02.657Z,18.50
2019-05-18T11:28:06.608Z,18.80
2019-05-18T11:30:12.981Z,18.80
2019-05-18T11:32:16.859Z,18.80
2019-05-18T11:34:21.161Z,18.80
2019-05-18T11:36:26.125Z,18.90
2019-05-18T11:38:30.168Z,19.00
2019-05-18T11:40:34.144Z,19.20
2019-05-18T11:42:38.138Z,19.40
2019-05-18T11:44:42.052Z,19.90
2019-05-18T11:46:45.971Z,20.00
2019-05-18T11:48:50.197Z,19.60
2019-05-18T11:50:54.068Z,19.50
2019-05-18T11:52:57.989Z,19.50
2019-05-18T11:55:01.947Z,19.80
2019-05-18T11:57:05.877Z,20.00
2019-05-18T11:59:09.831Z,20.20
2019-05-18T12:01:13.737Z,19.90
2019-05-18T12:03:17.664Z,19.80
2019-05-18T12:05:21.632Z,19.80
2019-05-18T12:07:25.537Z,20.20
2019-05-18T12:09:29.421Z,20.20
2019-05-18T12:11:33.339Z,20.20
2019-05-18T12:13:37.234Z,20.30
2019-05-18T12:15:41.206Z,20.20
2019-05-18T12:17:45.148Z,20.10
2019-05-18T12:19:49.028Z,20.30
2019-05-18T12:21:52.998Z,20.30
2019-05-18T12:23:56.881Z,20.40
2019-05-18T12:26:00.899Z,20.50
2019-05-18T12:28:04.859Z,20.80
2019-05-18T12:30:12.424Z,20.90
2019-05-18T12:32:16.287Z,21.00
2019-05-18T12:34:20.196Z,21.20
2019-05-18T12:36:24.077Z,21.20
2019-05-18T12:38:28.131Z,21.50
2019-05-18T12:40:32.033Z,21.80
2019-05-18T12:42:35.925Z,22.40
2019-05-18T12:44:39.829Z,22.10
2019-05-18T12:46:43.738Z,22.10
2019-05-18T12:48:47.712Z,22.40
2019-05-18T12:50:51.622Z,22.50
2019-05-18T12:52:55.489Z,23.00
2019-05-18T12:54:59.546Z,23.10
2019-05-18T12:57:03.433Z,22.70
2019-05-18T12:59:07.328Z,23.00
2019-05-18T13:01:11.261Z,23.70
2019-05-18T13:03:15.150Z,24.60
2019-05-18T13:05:19.400Z,24.60
2019-05-18T13:07:23.273Z,24.00
2019-05-18T13:09:27.223Z,24.00
2019-05-18T13:11:31.307Z,24.40
2019-05-18T13:13:35.195Z,24.80
2019-05-18T13:15:39.085Z,25.20
2019-05-18T13:17:43.122Z,25.40
2019-05-18T13:19:47.016Z,25.00
2019-05-18T13:21:55.082Z,24.60
2019-05-18T13:23:59.001Z,24.40
2019-05-18T13:26:03.036Z,24.70
2019-05-18T13:28:06.911Z,25.30
2019-05-18T13:30:14.521Z,25.40
2019-05-18T13:32:18.452Z,26.10
2019-05-18T13:34:22.436Z,26.00
2019-05-18T13:36:26.315Z,26.00
2019-05-18T13:38:30.237Z,26.40
2019-05-18T13:40:34.140Z,26.30
2019-05-18T13:42:38.007Z,26.20
2019-05-18T13:44:41.967Z,26.00
2019-05-18T13:46:45.842Z,26.40
2019-05-18T13:48:49.728Z,26.70
2019-05-18T13:50:53.659Z,27.40
2019-05-18T13:52:57.529Z,27.90
2019-05-18T13:55:04.632Z,27.80
2019-05-18T13:57:07.023Z,27.60
2019-05-18T13:59:10.928Z,27.70
2019-05-18T14:01:14.850Z,28.10
2019-05-18T14:03:18.732Z,28.00
2019-05-18T14:05:23.313Z,28.20
2019-05-18T14:07:27.238Z,28.10
2019-05-18T14:09:31.134Z,28.20
2019-05-18T14:11:35.786Z,27.70
2019-05-18T14:13:39.657Z,27.40
2019-05-18T14:15:43.671Z,26.80
2019-05-18T14:17:47.576Z,26.60
2019-05-18T14:19:51.458Z,26.60
2019-05-18T14:21:55.403Z,27.10
2019-05-18T14:23:59.312Z,27.60
2019-05-18T14:26:03.216Z,28.30
2019-05-18T14:28:07.101Z,27.70
2019-05-18T14:30:12.969Z,27.70
2019-05-18T14:32:16.918Z,27.80
2019-05-18T14:34:20.834Z,27.70
2019-05-18T14:36:24.737Z,27.80
2019-05-18T14:38:28.614Z,27.60
2019-05-18T14:40:32.529Z,27.30
2019-05-18T14:42:36.433Z,27.40
2019-05-18T14:44:40.345Z,27.70
2019-05-18T14:46:44.268Z,27.60
2019-05-18T14:48:48.437Z,27.70
2019-05-18T14:50:52.319Z,27.60
2019-05-18T14:52:56.287Z,27.40
2019-05-18T14:55:00.185Z,27.60
2019-05-18T14:57:04.064Z,27.60
2019-05-18T14:59:08.060Z,27.10
2019-05-18T15:01:11.959Z,26.90
2019-05-18T15:03:15.924Z,26.70
2019-05-18T15:05:19.907Z,26.40
2019-05-18T15:07:23.902Z,25.90
2019-05-18T15:09:27.789Z,25.90
2019-05-18T15:11:31.706Z,25.70
2019-05-18T15:13:35.665Z,25.50
2019-05-18T15:15:39.550Z,25.40
2019-05-18T15:17:43.450Z,25.00
2019-05-18T15:19:47.381Z,25.10
2019-05-18T15:21:51.301Z,25.00
2019-05-18T15:23:55.215Z,25.00
2019-05-18T15:25:59.112Z,25.30
2019-05-18T15:28:02.997Z,25.20
2019-05-18T15:30:10.401Z,25.20
2019-05-18T15:32:14.298Z,25.20
2019-05-18T15:34:18.225Z,25.20
2019-05-18T15:36:22.160Z,25.40
2019-05-18T15:38:26.024Z,25.30
2019-05-18T15:40:29.948Z,25.40
2019-05-18T15:42:33.870Z,25.80
2019-05-18T15:44:37.794Z,26.10
2019-05-18T15:46:41.684Z,26.20
2019-05-18T15:48:45.783Z,26.20
2019-05-18T15:50:49.868Z,25.90
2019-05-18T15:52:53.744Z,25.60
2019-05-18T15:54:57.670Z,25.20
2019-05-18T15:57:01.624Z,24.70
2019-05-18T15:59:05.490Z,24.20
2019-05-18T16:01:09.556Z,23.80
2019-05-18T16:03:13.441Z,23.50
2019-05-18T16:05:17.333Z,23.50
2019-05-18T16:07:21.281Z,23.80
2019-05-18T16:09:25.160Z,23.30
2019-05-18T16:11:29.041Z,22.80
2019-05-18T16:13:32.964Z,22.50
2019-05-18T16:15:36.925Z,22.30
2019-05-18T16:17:40.895Z,22.20
2019-05-18T16:19:44.779Z,22.20
2019-05-18T16:21:48.704Z,22.10
2019-05-18T16:23:52.682Z,22.00
2019-05-18T16:25:56.552Z,22.00
2019-05-18T16:28:00.441Z,22.00
2019-05-18T16:30:06.631Z,21.90
2019-05-18T16:32:10.541Z,22.00
2019-05-18T16:34:14.429Z,22.00
2019-05-18T16:36:18.363Z,22.00
2019-05-18T16:38:22.243Z,22.20
2019-05-18T16:40:26.158Z,22.50
2019-05-18T16:42:30.060Z,22.50
2019-05-18T16:44:33.924Z,22.50
2019-05-18T16:46:37.849Z,22.70
2019-05-18T16:48:41.712Z,22.90
2019-05-18T16:50:45.625Z,23.30
2019-05-18T16:52:49.587Z,23.50
2019-05-18T16:54:53.470Z,23.70
2019-05-18T16:56:57.372Z,23.90
2019-05-18T16:59:01.391Z,24.30
2019-05-18T17:01:05.267Z,24.70
2019-05-18T17:03:09.244Z,24.80
2019-05-18T17:05:13.995Z,24.90
2019-05-18T17:07:17.886Z,25.00
2019-05-18T17:09:21.918Z,25.20
2019-05-18T17:11:25.815Z,25.30
2019-05-18T17:13:29.695Z,25.30
2019-05-18T17:15:33.650Z,25.30
2019-05-18T17:17:37.526Z,25.50
2019-05-18T17:19:41.429Z,25.60
2019-05-18T17:21:45.359Z,25.40
2019-05-18T17:23:49.239Z,25.40
2019-05-18T17:25:53.174Z,25.20
2019-05-18T17:27:57.037Z,24.90
2019-05-18T17:30:00.925Z,24.60
2019-05-18T17:32:04.950Z,24.40
2019-05-18T17:34:08.863Z,23.90
2019-05-18T17:36:12.748Z,23.70
2019-05-18T17:38:16.673Z,23.40
2019-05-18T17:40:20.949Z,23.10
2019-05-18T17:42:25.026Z,22.90
2019-05-18T17:44:28.995Z,22.70
2019-05-18T17:46:32.930Z,22.60
2019-05-18T17:48:36.956Z,22.50
2019-05-18T17:50:40.912Z,22.40
2019-05-18T17:52:45.277Z,22.20
2019-05-18T17:54:49.150Z,22.10
2019-05-18T17:57:07.493Z,22.00
2019-05-18T17:58:58.639Z,21.80
2019-05-18T18:01:02.566Z,21.80
2019-05-18T18:03:06.435Z,21.70
2019-05-18T18:05:10.735Z,21.60
2019-05-18T18:07:14.626Z,21.50
2019-05-18T18:09:18.644Z,21.40
2019-05-18T18:11:22.556Z,21.30
2019-05-18T18:13:26.423Z,21.20
2019-05-18T18:15:30.345Z,21.20
2019-05-18T18:17:34.245Z,21.10
2019-05-18T18:19:38.128Z,21.10
2019-05-18T18:21:42.078Z,21.00
2019-05-18T18:23:54.135Z,20.90
2019-05-18T18:25:52.034Z,20.90
2019-05-18T18:27:55.910Z,20.80
2019-05-18T18:29:59.794Z,20.80
2019-05-18T18:32:03.734Z,20.70
2019-05-18T18:34:07.637Z,20.80
2019-05-18T18:36:11.557Z,20.80
2019-05-18T18:38:15.488Z,20.70
2019-05-18T18:40:19.395Z,20.60
2019-05-18T18:42:23.349Z,20.60
2019-05-18T18:44:27.311Z,20.60
2019-05-18T18:46:31.251Z,20.50
2019-05-18T18:48:35.120Z,20.70
2019-05-18T18:50:38.997Z,20.90
2019-05-18T18:52:42.946Z,20.70
2019-05-18T18:54:46.822Z,20.80
2019-05-18T18:56:50.778Z,20.70
2019-05-18T18:58:54.642Z,20.60
2019-05-18T19:00:58.537Z,20.60
2019-05-18T19:03:02.474Z,20.60
2019-05-18T19:05:07.084Z,20.50
2019-05-18T19:07:11.017Z,20.30
2019-05-18T19:09:14.945Z,20.20
2019-05-18T19:11:18.841Z,20.20
2019-05-18T19:13:22.729Z,20.10
2019-05-18T19:15:26.651Z,19.90
2019-05-18T19:17:30.600Z,19.90
2019-05-18T19:19:34.477Z,19.70
2019-05-18T19:21:38.381Z,19.60
2019-05-18T19:23:42.293Z,19.50
2019-05-18T19:25:46.191Z,19.40
2019-05-18T19:27:54.954Z,19.30
2019-05-18T19:29:55.673Z,19.30
2019-05-18T19:31:59.581Z,19.20
2019-05-18T19:34:03.492Z,19.20
2019-05-18T19:36:07.421Z,19.10
2019-05-18T19:38:11.372Z,19.10
2019-05-18T19:40:15.663Z,19.00
2019-05-18T19:42:19.575Z,19.00
2019-05-18T19:44:24.012Z,19.00
2019-05-18T19:46:28.189Z,19.00
2019-05-18T19:48:32.104Z,18.90
2019-05-18T19:50:36.020Z,18.80
2019-05-18T19:52:39.942Z,18.70
2019-05-18T19:54:43.940Z,18.70
2019-05-18T19:56:47.875Z,18.60
2019-05-18T19:58:51.878Z,18.60
2019-05-18T20:00:55.775Z,18.60
2019-05-18T20:02:59.670Z,18.40
2019-05-18T20:05:07.989Z,18.50
2019-05-18T20:07:09.532Z,18.50
2019-05-18T20:09:13.449Z,18.40
2019-05-18T20:11:17.352Z,18.40
2019-05-18T20:13:21.279Z,18.30
2019-05-18T20:15:25.171Z,18.20
2019-05-18T20:17:29.118Z,18.20
2019-05-18T20:19:39.309Z,18.20
2019-05-18T20:21:38.584Z,18.10
2019-05-18T20:23:42.572Z,18.00
2019-05-18T20:25:46.487Z,18.00
2019-05-18T20:27:50.410Z,17.90
2019-05-18T20:29:54.335Z,17.90
2019-05-18T20:31:58.244Z,17.90
2019-05-18T20:34:02.151Z,17.90
2019-05-18T20:36:06.194Z,17.80
2019-05-18T20:38:10.140Z,17.70
2019-05-18T20:40:14.058Z,17.70
2019-05-18T20:42:17.924Z,17.80
2019-05-18T20:44:21.872Z,17.80
2019-05-18T20:46:25.756Z,17.70
2019-05-18T20:48:29.640Z,17.70
2019-05-18T20:50:33.584Z,17.60
2019-05-18T20:52:37.500Z,17.60
2019-05-18T20:54:41.382Z,17.50
2019-05-18T20:56:45.310Z,17.50
2019-05-18T20:58:49.185Z,17.40
2019-05-18T21:00:53.097Z,17.40
2019-05-18T21:02:56.990Z,17.40
2019-05-18T21:05:00.929Z,17.40
2019-05-18T21:07:05.032Z,17.40
2019-05-18T21:09:08.921Z,17.30
2019-05-18T21:11:12.858Z,17.20
2019-05-18T21:13:16.757Z,17.20
2019-05-18T21:15:21.533Z,17.10
2019-05-18T21:17:25.470Z,17.10
2019-05-18T21:19:29.359Z,17.00
2019-05-18T21:21:33.313Z,17.10
2019-05-18T21:23:37.288Z,17.10
2019-05-18T21:25:41.242Z,17.00
2019-05-18T21:27:45.123Z,16.90
2019-05-18T21:29:49.073Z,16.90
2019-05-18T21:31:53.009Z,16.80
2019-05-18T21:33:56.906Z,16.80
2019-05-18T21:36:00.806Z,16.70
2019-05-18T21:38:04.748Z,16.70
2019-05-18T21:40:09.158Z,16.80
2019-05-18T21:42:13.038Z,16.80
2019-05-18T21:44:16.969Z,16.70
2019-05-18T21:46:20.880Z,16.70
2019-05-18T21:48:24.933Z,16.70
2019-05-18T21:50:28.826Z,16.70
2019-05-18T21:52:32.726Z,16.60
2019-05-18T21:54:36.641Z,16.60
2019-05-18T21:56:40.555Z,16.50
2019-05-18T21:58:44.433Z,16.50
2019-05-18T22:00:50.265Z,16.50
2019-05-18T22:02:54.231Z,16.50
2019-05-18T22:04:58.107Z,16.50
2019-05-18T22:07:02.126Z,16.40
2019-05-18T22:09:06.867Z,16.40
2019-05-18T22:11:10.781Z,16.40
2019-05-18T22:13:14.717Z,16.30
2019-05-18T22:15:18.761Z,16.30
2019-05-18T22:17:22.668Z,16.30
2019-05-18T22:19:26.596Z,16.30
2019-05-18T22:21:30.499Z,16.20
2019-05-18T22:23:34.386Z,16.20
2019-05-18T22:25:38.312Z,16.20
2019-05-18T22:27:42.214Z,16.10
2019-05-18T22:29:46.128Z,16.20
2019-05-18T22:31:50.059Z,16.10
2019-05-18T22:33:53.988Z,16.10
2019-05-18T22:35:57.918Z,16.00
2019-05-18T22:38:01.802Z,16.00
2019-05-18T22:40:09.232Z,15.90
2019-05-18T22:42:13.105Z,15.90
2019-05-18T22:44:17.030Z,15.80
2019-05-18T22:46:20.946Z,15.90
2019-05-18T22:48:40.018Z,15.90
2019-05-18T22:50:30.411Z,15.90
2019-05-18T22:52:34.307Z,15.80
2019-05-18T22:54:38.249Z,15.80
2019-05-18T22:56:42.172Z,15.70
2019-05-18T22:58:46.110Z,15.70
2019-05-18T23:00:50.037Z,15.60
2019-05-18T23:02:53.936Z,15.60
2019-05-18T23:04:57.872Z,15.60
2019-05-18T23:07:01.768Z,15.60
2019-05-18T23:09:06.655Z,15.60
2019-05-18T23:11:10.720Z,15.60
2019-05-18T23:13:14.630Z,15.50
2019-05-18T23:15:18.629Z,15.50
2019-05-18T23:17:22.546Z,15.50
2019-05-18T23:19:26.447Z,15.50
2019-05-18T23:21:30.328Z,15.50
2019-05-18T23:23:34.275Z,15.40
2019-05-18T23:25:38.192Z,15.30
2019-05-18T23:27:42.136Z,15.30
2019-05-18T23:29:46.025Z,15.20
2019-05-18T23:31:49.985Z,15.30
2019-05-18T23:33:53.869Z,15.30
2019-05-18T23:35:57.830Z,15.20
2019-05-18T23:40:06.233Z,15.10
2019-05-18T23:42:10.194Z,15.00
2019-05-18T23:44:14.101Z,15.00
2019-05-18T23:46:18.026Z,15.00
2019-05-18T23:48:21.941Z,15.00
2019-05-18T23:50:25.822Z,15.00
2019-05-18T23:52:29.726Z,15.00
2019-05-18T23:54:33.685Z,15.00
2019-05-18T23:56:37.561Z,15.00
2019-05-18T23:58:41.466Z,14.90
